createdAt,value
2022-10-17T00:00:31.019Z,100924.34
2022-10-17T00:02:58.079Z,100923.53
2022-10-17T00:05:25.185Z,100930.56
2022-10-17T00:07:52.894Z,100928.16
2022-10-17T00:10:20.030Z,100928.16
2022-10-17T00:12:46.647Z,100939.00
2022-10-17T00:15:18.329Z,100937.66
2022-10-17T00:17:45.218Z,100940.09
2022-10-17T00:20:12.313Z,100940.38
2022-10-17T00:22:39.107Z,100946.63
2022-10-17T00:25:06.233Z,100940.34
2022-10-17T00:27:37.109Z,100943.06
2022-10-17T00:30:04.340Z,100949.03
2022-10-17T00:32:31.851Z,100947.41
2022-10-17T00:34:58.709Z,100955.53
2022-10-17T00:37:25.469Z,100959.88
2022-10-17T00:39:52.118Z,100955.00
2022-10-17T00:42:18.736Z,100961.53
2022-10-17T00:44:47.481Z,100962.09
2022-10-17T00:47:18.298Z,100966.16
2022-10-17T00:49:45.745Z,100955.56
2022-10-17T00:52:17.686Z,100966.09
2022-10-17T00:54:49.093Z,100965.06
2022-10-17T00:57:17.018Z,100963.66
2022-10-17T00:59:48.755Z,100965.31
2022-10-17T01:02:18.880Z,100960.47
2022-10-17T01:04:50.025Z,100957.47
2022-10-17T01:07:16.975Z,100966.13
2022-10-17T01:09:46.186Z,100963.38
2022-10-17T01:12:21.888Z,100962.06
2022-10-17T01:15:23.912Z,100965.03
2022-10-17T01:18:19.478Z,100963.69
2022-10-17T01:20:59.276Z,100962.09
2022-10-17T01:24:03.513Z,100967.50
2022-10-17T01:26:58.880Z,100965.91
2022-10-17T01:29:40.849Z,100964.00
2022-10-17T01:32:20.066Z,100965.34
2022-10-17T01:35:11.603Z,100965.31
2022-10-17T01:37:55.725Z,100963.69
2022-10-17T01:40:36.881Z,100967.47
2022-10-17T01:43:12.742Z,100974.53
2022-10-17T01:46:03.327Z,100977.22
2022-10-17T01:48:37.953Z,100970.16
2022-10-17T01:51:22.631Z,100968.47
2022-10-17T01:53:54.783Z,100951.22
2022-10-17T01:56:25.848Z,100952.00
2022-10-17T01:58:58.650Z,100954.41
2022-10-17T02:01:28.870Z,100964.69
2022-10-17T02:03:58.168Z,100964.44
2022-10-17T02:06:24.993Z,100961.16
2022-10-17T02:08:51.689Z,100961.94
2022-10-17T02:11:24.950Z,100965.75
2022-10-17T02:14:07.215Z,100963.94
2022-10-17T02:16:39.436Z,100958.50
2022-10-17T02:19:26.454Z,100955.53
2022-10-17T02:22:10.085Z,100954.44
2022-10-17T02:24:43.654Z,100950.59
2022-10-17T02:27:47.679Z,100952.81
2022-10-17T02:30:34.009Z,100951.34
2022-10-17T02:33:07.928Z,100956.84
2022-10-17T02:35:40.319Z,100961.38
2022-10-17T02:38:09.752Z,100961.38
2022-10-17T02:40:38.104Z,100958.19
2022-10-17T02:43:05.023Z,100952.75
2022-10-17T02:45:35.982Z,100948.97
2022-10-17T02:48:29.306Z,100962.50
2022-10-17T02:51:05.452Z,100950.25
2022-10-17T02:53:47.989Z,100959.16
2022-10-17T02:56:18.647Z,100964.91
2022-10-17T02:58:50.969Z,100957.03
2022-10-17T03:01:18.977Z,100959.75
2022-10-17T03:03:46.006Z,100963.81
2022-10-17T03:06:12.832Z,100963.78
2022-10-17T03:08:39.702Z,100963.78
2022-10-17T03:11:06.517Z,100978.13
2022-10-17T03:13:36.217Z,100968.38
2022-10-17T03:16:06.322Z,100962.41
2022-10-17T03:18:33.257Z,100969.69
2022-10-17T03:21:01.256Z,100962.75
2022-10-17T03:23:28.459Z,100972.97
2022-10-17T03:25:55.459Z,100971.03
2022-10-17T03:28:22.403Z,100977.28
2022-10-17T03:30:50.103Z,100972.38
2022-10-17T03:33:16.962Z,100983.94
2022-10-17T03:35:43.693Z,100974.94
2022-10-17T03:38:10.358Z,100984.31
2022-10-17T03:40:37.136Z,100989.47
2022-10-17T03:43:04.226Z,100981.94
2022-10-17T03:45:30.886Z,100987.31
2022-10-17T03:47:59.003Z,100990.81
2022-10-17T03:50:26.131Z,100994.28
2022-10-17T03:52:53.192Z,100983.63
2022-10-17T03:55:19.910Z,100996.69
2022-10-17T03:57:47.064Z,101000.97
2022-10-17T04:00:18.046Z,100999.97
2022-10-17T04:02:52.709Z,101004.00
2022-10-17T04:05:19.653Z,101003.41
2022-10-17T04:07:47.675Z,101002.25
2022-10-17T04:10:16.320Z,101004.47
2022-10-17T04:12:43.257Z,101014.72
2022-10-17T04:15:10.658Z,101015.34
2022-10-17T04:17:38.478Z,101015.84
2022-10-17T04:20:07.086Z,101007.94
2022-10-17T04:22:34.608Z,101013.31
2022-10-17T04:25:04.329Z,101013.59
2022-10-17T04:27:36.068Z,101008.69
2022-10-17T04:30:03.166Z,101007.06
2022-10-17T04:32:33.181Z,101005.19
2022-10-17T04:35:08.967Z,101006.53
2022-10-17T04:37:36.049Z,101004.91
2022-10-17T04:40:09.664Z,100998.41
2022-10-17T04:42:36.783Z,101001.66
2022-10-17T04:45:04.917Z,101013.44
2022-10-17T04:47:32.490Z,101010.97
2022-10-17T04:49:59.241Z,101023.00
2022-10-17T04:52:26.845Z,101017.78
2022-10-17T04:54:54.062Z,101025.31
2022-10-17T04:57:21.617Z,101022.97
2022-10-17T04:59:56.146Z,101034.06
2022-10-17T05:02:30.943Z,101026.25
2022-10-17T05:04:58.485Z,101028.25
2022-10-17T05:07:25.167Z,101030.47
2022-10-17T05:09:51.760Z,101018.44
2022-10-17T05:12:19.090Z,101020.00
2022-10-17T05:14:48.587Z,101026.91
2022-10-17T05:17:15.388Z,101026.16
2022-10-17T05:19:42.010Z,101028.25
2022-10-17T05:22:09.558Z,101037.03
2022-10-17T05:24:36.597Z,101030.63
2022-10-17T05:27:03.574Z,101021.66
2022-10-17T05:29:30.632Z,101015.66
2022-10-17T05:32:06.015Z,101019.44
2022-10-17T05:34:34.160Z,101022.41
2022-10-17T05:37:00.847Z,101026.13
2022-10-17T05:39:27.910Z,101036.84
2022-10-17T05:41:56.489Z,101032.69
2022-10-17T05:44:23.306Z,101031.19
2022-10-17T05:46:55.044Z,101038.38
2022-10-17T05:49:32.519Z,101040.72
2022-10-17T05:52:07.805Z,101047.56
2022-10-17T05:54:45.690Z,101048.38
2022-10-17T05:57:12.702Z,101047.19
2022-10-17T05:59:40.689Z,101051.00
2022-10-17T06:02:14.445Z,101044.13
2022-10-17T06:04:45.594Z,101052.91
2022-10-17T06:07:15.841Z,101066.38
2022-10-17T06:12:15.778Z,101058.41
2022-10-17T06:14:43.583Z,101061.66
2022-10-17T06:17:16.065Z,101063.19
2022-10-17T06:19:44.817Z,101067.47
2022-10-17T06:22:12.837Z,101069.06
2022-10-17T06:24:40.197Z,101071.53
2022-10-17T06:27:11.000Z,101071.06
2022-10-17T06:29:39.632Z,101072.44
2022-10-17T06:32:09.787Z,101074.34
2022-10-17T06:34:40.050Z,101076.50
2022-10-17T06:37:06.897Z,101086.13
2022-10-17T06:39:36.380Z,101088.78
2022-10-17T06:42:07.307Z,101089.94
2022-10-17T06:45:00.244Z,101093.81
2022-10-17T06:47:40.414Z,101097.56
2022-10-17T06:50:26.909Z,101104.66
2022-10-17T06:53:10.564Z,101110.44
2022-10-17T06:55:53.112Z,101111.28
2022-10-17T06:58:42.894Z,101117.75
2022-10-17T07:01:24.340Z,101110.25
2022-10-17T07:03:55.074Z,101121.13
2022-10-17T07:06:24.598Z,101115.69
2022-10-17T07:08:52.361Z,101115.69
2022-10-17T07:11:20.767Z,101121.44
2022-10-17T07:13:49.742Z,101124.47
2022-10-17T07:16:16.529Z,101128.88
2022-10-17T07:18:49.753Z,101130.56
2022-10-17T07:21:17.602Z,101141.72
2022-10-17T07:23:44.295Z,101139.00
2022-10-17T07:26:13.573Z,101127.34
2022-10-17T07:28:44.053Z,101129.22
2022-10-17T07:31:24.433Z,101136.06
2022-10-17T07:33:54.683Z,101139.31
2022-10-17T07:36:21.415Z,101146.94
2022-10-17T07:38:48.266Z,101147.19
2022-10-17T07:41:19.208Z,101159.97
2022-10-17T07:43:49.257Z,101161.06
2022-10-17T07:46:19.929Z,101155.06
2022-10-17T07:48:47.064Z,101156.44
2022-10-17T07:51:13.881Z,101160.25
2022-10-17T07:53:42.749Z,101164.31
2022-10-17T07:56:12.364Z,101179.53
2022-10-17T07:58:39.465Z,101169.19
2022-10-17T08:01:14.810Z,101174.66
2022-10-17T08:03:44.110Z,101179.53
2022-10-17T08:06:11.182Z,101177.88
2022-10-17T08:08:37.802Z,101175.72
2022-10-17T08:11:07.549Z,101178.41
2022-10-17T08:13:34.879Z,101186.00
2022-10-17T08:16:02.786Z,101190.84
2022-10-17T08:18:29.408Z,101186.53
2022-10-17T08:21:00.389Z,101186.63
2022-10-17T08:23:27.830Z,101192.31
2022-10-17T08:25:54.642Z,101187.94
2022-10-17T08:28:21.407Z,101180.22
2022-10-17T08:30:48.143Z,101183.72
2022-10-17T08:33:14.798Z,101183.69
2022-10-17T08:35:41.585Z,101183.63
2022-10-17T08:38:09.998Z,101188.22
2022-10-17T08:40:42.669Z,101181.97
2022-10-17T08:43:47.465Z,101182.50
2022-10-17T08:46:19.223Z,101196.34
2022-10-17T08:48:47.826Z,101192.28
2022-10-17T08:51:20.486Z,101189.66
2022-10-17T08:53:53.328Z,101190.53
2022-10-17T08:56:44.078Z,101186.44
2022-10-17T08:59:18.872Z,101178.69
2022-10-17T09:01:58.328Z,101184.34
2022-10-17T09:04:40.584Z,101186.59
2022-10-17T09:07:17.918Z,101191.94
2022-10-17T09:10:02.589Z,101189.09
2022-10-17T09:12:44.712Z,101200.19
2022-10-17T09:15:14.244Z,101193.50
2022-10-17T09:17:55.893Z,101197.06
2022-10-17T09:20:27.729Z,101197.59
2022-10-17T09:23:21.437Z,101213.34
2022-10-17T09:25:55.333Z,101212.31
2022-10-17T09:28:30.290Z,101191.97
2022-10-17T09:31:01.268Z,101201.31
2022-10-17T09:33:53.833Z,101208.19
2022-10-17T09:36:27.424Z,101203.41
2022-10-17T09:39:00.147Z,101195.41
2022-10-17T09:41:46.461Z,101199.44
2022-10-17T09:44:13.706Z,101205.59
2022-10-17T09:46:40.711Z,101199.91
2022-10-17T09:49:18.703Z,101192.69
2022-10-17T09:51:46.017Z,101198.66
2022-10-17T09:54:24.091Z,101199.19
2022-10-17T09:57:05.764Z,101205.19
2022-10-17T09:59:57.300Z,101210.28
2022-10-17T10:02:25.593Z,101214.59
2022-10-17T10:05:09.566Z,101215.91
2022-10-17T10:07:39.665Z,101216.03
2022-10-17T10:10:22.487Z,101224.56
2022-10-17T10:13:06.186Z,101217.38
2022-10-17T10:15:41.292Z,101221.38
2022-10-17T10:21:08.504Z,101237.59
2022-10-17T10:23:40.150Z,101229.91
2022-10-17T10:26:29.784Z,101235.53
2022-10-17T10:29:06.597Z,101229.31
2022-10-17T10:31:40.249Z,101231.53
2022-10-17T10:34:19.718Z,101228.09
2022-10-17T10:36:54.961Z,101218.19
2022-10-17T10:39:51.004Z,101219.31
2022-10-17T10:42:37.257Z,101222.47
2022-10-17T10:45:19.078Z,101215.59
2022-10-17T10:47:56.148Z,101223.06
2022-10-17T10:50:46.421Z,101219.16
2022-10-17T10:53:38.342Z,101222.94
2022-10-17T10:56:30.205Z,101234.44
2022-10-17T10:59:09.177Z,101232.44
2022-10-17T11:01:48.075Z,101230.56
2022-10-17T11:04:27.100Z,101228.03
2022-10-17T11:07:02.177Z,101219.19
2022-10-17T11:10:00.266Z,101221.63
2022-10-17T11:12:45.774Z,101220.94
2022-10-17T11:15:28.710Z,101231.47
2022-10-17T11:18:00.119Z,101217.81
2022-10-17T11:20:57.620Z,101233.50
2022-10-17T11:23:40.211Z,101233.03
2022-10-17T11:26:13.822Z,101231.44
2022-10-17T11:28:40.497Z,101234.19
2022-10-17T11:31:13.490Z,101240.19
2022-10-17T11:33:58.269Z,101242.84
2022-10-17T11:36:30.592Z,101245.38
2022-10-17T11:39:03.420Z,101233.25
2022-10-17T11:41:39.563Z,101237.31
2022-10-17T11:44:20.437Z,101239.25
2022-10-17T11:46:59.005Z,101233.19
2022-10-17T11:49:34.250Z,101235.34
2022-10-17T11:52:31.907Z,101230.31
2022-10-17T11:55:16.195Z,101228.22
2022-10-17T11:58:05.903Z,101240.38
2022-10-17T12:01:08.349Z,101231.88
2022-10-17T12:03:48.092Z,101237.56
2022-10-17T12:06:36.514Z,101231.59
2022-10-17T12:09:38.746Z,101223.09
2022-10-17T12:12:05.699Z,101224.56
2022-10-17T12:14:45.050Z,101225.81
2022-10-17T12:17:33.019Z,101233.03
2022-10-17T12:20:25.132Z,101235.44
2022-10-17T12:22:59.294Z,101228.81
2022-10-17T12:25:33.609Z,101223.78
2022-10-17T12:28:13.854Z,101214.66
2022-10-17T12:31:17.189Z,101221.59
2022-10-17T12:33:52.904Z,101230.56
2022-10-17T12:36:22.226Z,101231.59
2022-10-17T12:39:14.610Z,101221.66
2022-10-17T12:41:42.175Z,101225.66
2022-10-17T12:44:15.066Z,101222.53
2022-10-17T12:47:10.882Z,101219.53
2022-10-17T12:49:56.598Z,101217.63
2022-10-17T12:52:25.047Z,101207.47
2022-10-17T12:55:15.039Z,101214.06
2022-10-17T12:57:58.537Z,101208.44
2022-10-17T13:00:34.977Z,101211.50
2022-10-17T13:03:23.897Z,101219.34
2022-10-17T13:05:57.498Z,101212.25
2022-10-17T13:08:29.051Z,101215.69
2022-10-17T13:10:57.054Z,101212.94
2022-10-17T13:13:36.243Z,101202.31
2022-10-17T13:16:03.232Z,101209.97
2022-10-17T13:18:30.282Z,101219.81
2022-10-17T13:21:00.022Z,101226.16
2022-10-17T13:23:31.001Z,101233.47
2022-10-17T13:26:21.916Z,101235.91
2022-10-17T13:29:04.673Z,101229.53
2022-10-17T13:31:37.150Z,101238.22
2022-10-17T13:34:06.680Z,101235.50
2022-10-17T13:36:35.150Z,101233.16
2022-10-17T13:39:12.087Z,101231.94
2022-10-17T13:41:41.747Z,101244.03
2022-10-17T13:44:19.200Z,101237.13
2022-10-17T13:46:46.546Z,101248.50
2022-10-17T13:49:24.419Z,101243.88
2022-10-17T13:51:56.055Z,101246.41
2022-10-17T13:54:43.000Z,101243.25
2022-10-17T13:57:20.860Z,101245.69
2022-10-17T13:59:57.655Z,101249.59
2022-10-17T14:02:27.907Z,101250.38
2022-10-17T14:05:19.951Z,101249.59
2022-10-17T14:08:16.918Z,101240.63
2022-10-17T14:10:38.672Z,101243.47
2022-10-17T14:13:08.251Z,101246.41
2022-10-17T14:15:36.678Z,101239.91
2022-10-17T14:18:07.944Z,101246.25
2022-10-17T14:23:32.255Z,101253.75
2022-10-17T14:26:21.417Z,101253.16
2022-10-17T14:29:07.309Z,101244.13
2022-10-17T14:31:36.756Z,101245.66
2022-10-17T14:34:04.909Z,101252.53
2022-10-17T14:36:35.268Z,101248.63
2022-10-17T14:39:03.658Z,101252.25
2022-10-17T14:41:42.983Z,101256.09
2022-10-17T14:44:19.186Z,101256.00
2022-10-17T14:46:51.003Z,101267.56
2022-10-17T14:49:27.348Z,101271.78
2022-10-17T14:52:24.715Z,101273.09
2022-10-17T14:54:51.885Z,101278.13
2022-10-17T14:57:27.807Z,101276.22
2022-10-17T14:59:58.047Z,101277.50
2022-10-17T15:02:27.157Z,101282.31
2022-10-17T15:04:54.806Z,101283.84
2022-10-17T15:07:21.729Z,101283.22
2022-10-17T15:09:50.468Z,101280.50
2022-10-17T15:12:19.619Z,101292.25
2022-10-17T15:14:48.367Z,101289.34
2022-10-17T15:17:20.539Z,101293.81
2022-10-17T15:19:48.026Z,101293.19
2022-10-17T15:22:16.092Z,101295.16
2022-10-17T15:24:42.995Z,101306.00
2022-10-17T15:27:18.127Z,101297.84
2022-10-17T15:29:45.493Z,101303.25
2022-10-17T15:32:12.222Z,101298.19
2022-10-17T15:34:39.387Z,101293.53
2022-10-17T15:37:07.471Z,101295.44
2022-10-17T15:39:34.045Z,101298.94
2022-10-17T15:42:00.687Z,101297.59
2022-10-17T15:44:27.323Z,101301.03
2022-10-17T15:46:55.696Z,101298.69
2022-10-17T15:49:22.385Z,101301.38
2022-10-17T15:51:53.055Z,101307.44
2022-10-17T15:54:21.952Z,101297.88
2022-10-17T15:56:53.968Z,101304.44
2022-10-17T15:59:25.899Z,101302.38
2022-10-17T16:01:52.622Z,101297.63
2022-10-17T16:04:19.241Z,101306.13
2022-10-17T16:06:45.904Z,101308.38
2022-10-17T16:09:12.520Z,101308.94
2022-10-17T16:11:41.802Z,101308.34
2022-10-17T16:14:12.549Z,101308.84
2022-10-17T16:16:39.546Z,101312.69
2022-10-17T16:19:06.799Z,101320.47
2022-10-17T16:21:38.107Z,101318.81
2022-10-17T16:24:05.283Z,101321.75
2022-10-17T16:26:32.323Z,101315.25
2022-10-17T16:29:02.579Z,101322.91
2022-10-17T16:31:34.256Z,101313.06
2022-10-17T16:34:02.329Z,101321.69
2022-10-17T16:36:29.816Z,101320.41
2022-10-17T16:38:56.518Z,101321.31
2022-10-17T16:41:26.356Z,101323.75
2022-10-17T16:43:55.577Z,101321.81
2022-10-17T16:46:23.966Z,101322.81
2022-10-17T16:48:50.675Z,101330.31
2022-10-17T16:51:18.837Z,101328.81
2022-10-17T16:53:50.684Z,101328.84
2022-10-17T16:56:19.438Z,101338.44
2022-10-17T16:58:46.501Z,101342.28
2022-10-17T17:01:21.356Z,101353.44
2022-10-17T17:03:48.249Z,101338.16
2022-10-17T17:06:17.167Z,101349.00
2022-10-17T17:08:43.916Z,101354.78
2022-10-17T17:11:12.238Z,101344.19
2022-10-17T17:13:39.336Z,101343.59
2022-10-17T17:16:08.682Z,101358.31
2022-10-17T17:18:35.741Z,101362.06
2022-10-17T17:21:04.703Z,101359.31
2022-10-17T17:23:33.603Z,101362.56
2022-10-17T17:26:02.685Z,101361.47
2022-10-17T17:28:30.420Z,101359.16
2022-10-17T17:30:57.251Z,101365.00
2022-10-17T17:33:25.070Z,101368.91
2022-10-17T17:36:00.127Z,101370.88
2022-10-17T17:38:31.848Z,101358.34
2022-10-17T17:40:58.612Z,101372.56
2022-10-17T17:43:25.600Z,101367.38
2022-10-17T17:45:52.686Z,101366.84
2022-10-17T17:48:20.778Z,101362.22
2022-10-17T17:50:47.953Z,101371.78
2022-10-17T17:53:16.728Z,101374.78
2022-10-17T17:55:44.335Z,101373.13
2022-10-17T17:58:12.239Z,101375.03
2022-10-17T18:00:40.772Z,101378.75
2022-10-17T18:03:07.854Z,101385.97
2022-10-17T18:05:35.948Z,101387.94
2022-10-17T18:08:04.706Z,101389.69
2022-10-17T18:10:32.807Z,101387.50
2022-10-17T18:12:59.445Z,101396.31
2022-10-17T18:15:26.394Z,101399.28
2022-10-17T18:17:53.020Z,101397.53
2022-10-17T18:20:19.672Z,101397.88
2022-10-17T18:22:49.503Z,101399.00
2022-10-17T18:25:16.452Z,101388.72
2022-10-17T18:27:43.028Z,101397.75
2022-10-17T18:30:10.241Z,101398.06
2022-10-17T18:32:38.907Z,101401.59
2022-10-17T18:35:05.971Z,101396.13
2022-10-17T18:37:32.671Z,101407.91
2022-10-17T18:39:59.294Z,101401.84
2022-10-17T18:42:26.030Z,101404.63
2022-10-17T18:44:53.325Z,101405.19
2022-10-17T18:47:21.023Z,101412.03
2022-10-17T18:49:48.500Z,101406.56
2022-10-17T18:52:15.283Z,101408.19
2022-10-17T18:54:41.930Z,101411.75
2022-10-17T18:57:08.572Z,101400.88
2022-10-17T18:59:35.207Z,101400.88
2022-10-17T19:02:01.978Z,101404.16
2022-10-17T19:04:28.741Z,101398.75
2022-10-17T19:06:55.459Z,101405.28
2022-10-17T19:09:22.105Z,101402.56
2022-10-17T19:11:49.151Z,101404.75
2022-10-17T19:14:16.002Z,101397.13
2022-10-17T19:16:48.768Z,101393.56
2022-10-17T19:19:21.325Z,101392.50
2022-10-17T19:21:51.602Z,101397.69
2022-10-17T19:24:21.361Z,101395.53
2022-10-17T19:26:50.321Z,101396.09
2022-10-17T19:29:18.590Z,101388.75
2022-10-17T19:31:46.875Z,101387.38
2022-10-17T19:34:15.217Z,101385.41
2022-10-17T19:36:42.700Z,101389.00
2022-10-17T19:39:13.952Z,101390.13
2022-10-17T19:41:42.261Z,101390.31
2022-10-17T19:44:11.751Z,101394.91
2022-10-17T19:46:38.773Z,101397.34
2022-10-17T19:49:06.691Z,101398.13
2022-10-17T19:51:33.750Z,101395.97
2022-10-17T19:54:01.678Z,101386.28
2022-10-17T19:56:30.609Z,101389.31
2022-10-17T19:58:58.079Z,101387.94
2022-10-17T20:01:28.127Z,101382.47
2022-10-17T20:03:55.690Z,101380.78
2022-10-17T20:06:23.198Z,101381.13
2022-10-17T20:08:50.449Z,101379.81
2022-10-17T20:11:20.499Z,101379.25
2022-10-17T20:13:47.729Z,101386.03
2022-10-17T20:16:20.377Z,101391.81
2022-10-17T20:18:47.874Z,101389.91
2022-10-17T20:21:18.546Z,101381.47
2022-10-17T20:23:47.497Z,101388.53
2022-10-17T20:26:26.262Z,101381.47
2022-10-17T20:29:08.730Z,101381.41
2022-10-17T20:31:35.691Z,101391.00
2022-10-17T20:34:03.368Z,101390.72
2022-10-17T20:36:30.271Z,101396.19
2022-10-17T20:38:58.222Z,101401.38
2022-10-17T20:41:26.327Z,101396.22
2022-10-17T20:43:55.191Z,101388.56
2022-10-17T20:46:35.802Z,101386.06
2022-10-17T20:49:03.618Z,101380.63
2022-10-17T20:51:30.597Z,101383.63
2022-10-17T20:56:30.994Z,101397.00
2022-10-17T20:59:01.122Z,101400.00
2022-10-17T21:01:29.194Z,101397.25
2022-10-17T21:03:59.659Z,101406.53
2022-10-17T21:06:27.874Z,101404.63
2022-10-17T21:08:55.698Z,101403.81
2022-10-17T21:11:25.270Z,101398.09
2022-10-17T21:14:00.701Z,101405.75
2022-10-17T21:16:29.019Z,101408.72
2022-10-17T21:18:56.375Z,101418.00
2022-10-17T21:21:26.927Z,101419.34
2022-10-17T21:24:01.068Z,101419.09
2022-10-17T21:26:28.862Z,101420.47
2022-10-17T21:28:55.481Z,101410.13
2022-10-17T21:31:24.986Z,101412.03
2022-10-17T21:33:54.583Z,101406.81
2022-10-17T21:36:22.874Z,101416.91
2022-10-17T21:38:52.056Z,101408.16
2022-10-17T21:41:20.406Z,101406.56
2022-10-17T21:43:48.061Z,101402.44
2022-10-17T21:46:17.216Z,101407.38
2022-10-17T21:48:44.967Z,101411.97
2022-10-17T21:51:14.351Z,101406.81
2022-10-17T21:53:41.608Z,101410.88
2022-10-17T21:56:12.778Z,101414.47
2022-10-17T21:58:39.536Z,101408.19
2022-10-17T22:01:10.405Z,101417.72
2022-10-17T22:03:42.776Z,101419.91
2022-10-17T22:09:01.245Z,101405.22
2022-10-17T22:11:31.116Z,101408.47
2022-10-17T22:14:10.108Z,101415.56
2022-10-17T22:16:38.427Z,101409.81
2022-10-17T22:19:07.000Z,101403.53
2022-10-17T22:21:35.741Z,101413.06
2022-10-17T22:24:05.689Z,101404.38
2022-10-17T22:26:35.399Z,101405.19
2022-10-17T22:29:04.317Z,101407.63
2022-10-17T22:31:31.327Z,101400.81
2022-10-17T22:33:58.162Z,101399.22
2022-10-17T22:36:24.852Z,101400.84
2022-10-17T22:38:51.864Z,101393.50
2022-10-17T22:41:18.882Z,101399.50
2022-10-17T22:43:45.497Z,101390.78
2022-10-17T22:46:13.692Z,101381.78
2022-10-17T22:48:40.443Z,101387.50
2022-10-17T22:51:07.571Z,101384.25
2022-10-17T22:53:35.293Z,101387.50
2022-10-17T22:56:12.203Z,101382.59
2022-10-17T22:58:38.946Z,101387.22
2022-10-17T23:01:07.031Z,101388.84
2022-10-17T23:03:35.142Z,101387.44
2022-10-17T23:06:02.805Z,101390.22
2022-10-17T23:08:29.518Z,101392.41
2022-10-17T23:10:56.195Z,101391.59
2022-10-17T23:13:22.937Z,101401.09
2022-10-17T23:15:51.758Z,101403.28
2022-10-17T23:18:19.421Z,101394.56
2022-10-17T23:20:46.466Z,101398.66
2022-10-17T23:23:13.327Z,101396.22
2022-10-17T23:25:40.044Z,101387.78
2022-10-17T23:28:10.091Z,101386.41
2022-10-17T23:30:38.905Z,101390.22
2022-10-17T23:33:06.789Z,101394.03
2022-10-17T23:35:35.655Z,101390.78
2022-10-17T23:38:02.571Z,101385.84
2022-10-17T23:40:29.491Z,101378.78
2022-10-17T23:42:56.148Z,101375.78
2022-10-17T23:45:22.810Z,101361.06
2022-10-17T23:47:49.712Z,101367.81
2022-10-17T23:50:16.657Z,101358.06
2022-10-17T23:52:43.668Z,101359.19
2022-10-17T23:55:10.546Z,101353.75
2022-10-17T23:57:38.539Z,101357.50
